sensor_id;sensor_type;location;lat;lon;timestamp;P1;durP1;ratioP1;P2;durP2;ratioP2
11113;SDS011;5610;52.154;9.198;2024-03-08T00:01:39;29.30;;;24.88;;
11113;SDS011;5610;52.154;9.198;2024-03-08T00:04:24;28.17;;;24.23;;
11113;SDS011;5610;52.154;9.198;2024-03-08T00:07:11;25.77;;;22.95;;
11113;SDS011;5610;52.154;9.198;2024-03-08T00:09:57;26.58;;;22.80;;
11113;SDS011;5610;52.154;9.198;2024-03-08T00:12:43;26.63;;;23.75;;
11113;SDS011;5610;52.154;9.198;2024-03-08T00:15:30;26.23;;;21.65;;
11113;SDS011;5610;52.154;9.198;2024-03-08T00:18:16;28.10;;;23.65;;
11113;SDS011;5610;52.154;9.198;2024-03-08T00:21:01;25.83;;;22.85;;
11113;SDS011;5610;52.154;9.198;2024-03-08T00:23:48;27.40;;;22.80;;
11113;SDS011;5610;52.154;9.198;2024-03-08T00:26:33;27.95;;;23.50;;
11113;SDS011;5610;52.154;9.198;2024-03-08T00:29:18;26.13;;;23.02;;
11113;SDS011;5610;52.154;9.198;2024-03-08T00:32:03;30.38;;;24.25;;
11113;SDS011;5610;52.154;9.198;2024-03-08T00:34:49;28.90;;;24.63;;
11113;SDS011;5610;52.154;9.198;2024-03-08T00:37:35;31.85;;;25.80;;
11113;SDS011;5610;52.154;9.198;2024-03-08T00:40:22;30.05;;;24.48;;
11113;SDS011;5610;52.154;9.198;2024-03-08T00:43:07;27.27;;;23.63;;
11113;SDS011;5610;52.154;9.198;2024-03-08T00:45:52;27.55;;;24.65;;
11113;SDS011;5610;52.154;9.198;2024-03-08T00:48:38;31.42;;;25.35;;
11113;SDS011;5610;52.154;9.198;2024-03-08T00:51:23;29.63;;;25.63;;
11113;SDS011;5610;52.154;9.198;2024-03-08T00:54:08;26.52;;;23.70;;
11113;SDS011;5610;52.154;9.198;2024-03-08T00:56:55;32.58;;;24.27;;
11113;SDS011;5610;52.154;9.198;2024-03-08T00:59:40;30.00;;;24.17;;
11113;SDS011;5610;52.154;9.198;2024-03-08T01:02:26;27.23;;;23.15;;
11113;SDS011;5610;52.154;9.198;2024-03-08T01:05:11;28.08;;;23.38;;
11113;SDS011;5610;52.154;9.198;2024-03-08T01:07:57;31.80;;;23.05;;
11113;SDS011;5610;52.154;9.198;2024-03-08T01:10:42;29.88;;;23.42;;
11113;SDS011;5610;52.154;9.198;2024-03-08T01:13:29;30.42;;;24.13;;
11113;SDS011;5610;52.154;9.198;2024-03-08T01:16:14;27.75;;;24.10;;
11113;SDS011;5610;52.154;9.198;2024-03-08T01:19:00;28.80;;;23.08;;
11113;SDS011;5610;52.154;9.198;2024-03-08T01:21:47;27.80;;;24.65;;
11113;SDS011;5610;52.154;9.198;2024-03-08T01:24:32;28.20;;;24.35;;
11113;SDS011;5610;52.154;9.198;2024-03-08T01:27:18;31.00;;;26.38;;
11113;SDS011;5610;52.154;9.198;2024-03-08T01:30:06;27.45;;;24.55;;
11113;SDS011;5610;52.154;9.198;2024-03-08T01:32:53;29.92;;;24.55;;
11113;SDS011;5610;52.154;9.198;2024-03-08T01:35:38;28.85;;;24.73;;
11113;SDS011;5610;52.154;9.198;2024-03-08T01:38:25;27.52;;;24.27;;
11113;SDS011;5610;52.154;9.198;2024-03-08T01:41:10;33.20;;;26.67;;
11113;SDS011;5610;52.154;9.198;2024-03-08T01:43:56;30.98;;;25.45;;
11113;SDS011;5610;52.154;9.198;2024-03-08T01:46:42;33.17;;;26.90;;
11113;SDS011;5610;52.154;9.198;2024-03-08T01:49:29;31.25;;;24.30;;
11113;SDS011;5610;52.154;9.198;2024-03-08T01:52:14;32.00;;;26.63;;
11113;SDS011;5610;52.154;9.198;2024-03-08T01:55:02;31.02;;;24.45;;
11113;SDS011;5610;52.154;9.198;2024-03-08T01:57:51;30.55;;;25.90;;
11113;SDS011;5610;52.154;9.198;2024-03-08T02:00:36;30.08;;;23.98;;
11113;SDS011;5610;52.154;9.198;2024-03-08T02:03:26;30.40;;;25.00;;
11113;SDS011;5610;52.154;9.198;2024-03-08T02:06:11;28.60;;;25.50;;
11113;SDS011;5610;52.154;9.198;2024-03-08T02:08:58;28.23;;;25.23;;
11113;SDS011;5610;52.154;9.198;2024-03-08T02:11:43;30.70;;;25.30;;
11113;SDS011;5610;52.154;9.198;2024-03-08T02:14:30;30.88;;;26.10;;
11113;SDS011;5610;52.154;9.198;2024-03-08T02:17:16;30.45;;;25.33;;
11113;SDS011;5610;52.154;9.198;2024-03-08T02:20:02;31.73;;;26.10;;
11113;SDS011;5610;52.154;9.198;2024-03-08T02:22:49;31.80;;;26.33;;
11113;SDS011;5610;52.154;9.198;2024-03-08T02:25:35;31.25;;;25.95;;
11113;SDS011;5610;52.154;9.198;2024-03-08T02:28:21;31.40;;;26.55;;
11113;SDS011;5610;52.154;9.198;2024-03-08T02:31:07;31.40;;;25.70;;
11113;SDS011;5610;52.154;9.198;2024-03-08T02:33:52;31.55;;;26.80;;
11113;SDS011;5610;52.154;9.198;2024-03-08T02:36:38;31.25;;;27.17;;
11113;SDS011;5610;52.154;9.198;2024-03-08T02:39:24;29.38;;;26.20;;
11113;SDS011;5610;52.154;9.198;2024-03-08T02:42:11;31.80;;;25.67;;
11113;SDS011;5610;52.154;9.198;2024-03-08T02:44:56;28.80;;;25.70;;
11113;SDS011;5610;52.154;9.198;2024-03-08T02:47:42;29.15;;;24.70;;
11113;SDS011;5610;52.154;9.198;2024-03-08T02:50:27;30.17;;;26.98;;
11113;SDS011;5610;52.154;9.198;2024-03-08T02:53:12;30.30;;;26.83;;
11113;SDS011;5610;52.154;9.198;2024-03-08T02:55:59;29.80;;;26.60;;
11113;SDS011;5610;52.154;9.198;2024-03-08T02:58:44;35.13;;;26.35;;
11113;SDS011;5610;52.154;9.198;2024-03-08T03:01:33;28.95;;;24.25;;
11113;SDS011;5610;52.154;9.198;2024-03-08T03:04:20;38.45;;;28.33;;
11113;SDS011;5610;52.154;9.198;2024-03-08T03:07:05;31.85;;;27.02;;
11113;SDS011;5610;52.154;9.198;2024-03-08T03:09:50;32.65;;;27.20;;
11113;SDS011;5610;52.154;9.198;2024-03-08T03:12:37;32.45;;;28.08;;
11113;SDS011;5610;52.154;9.198;2024-03-08T03:15:22;33.63;;;26.95;;
11113;SDS011;5610;52.154;9.198;2024-03-08T03:18:07;34.42;;;26.80;;
11113;SDS011;5610;52.154;9.198;2024-03-08T03:20:52;32.38;;;27.42;;
11113;SDS011;5610;52.154;9.198;2024-03-08T03:23:38;34.88;;;28.45;;
11113;SDS011;5610;52.154;9.198;2024-03-08T03:26:23;30.88;;;26.85;;
11113;SDS011;5610;52.154;9.198;2024-03-08T03:29:09;33.92;;;28.98;;
11113;SDS011;5610;52.154;9.198;2024-03-08T03:31:55;31.38;;;27.27;;
11113;SDS011;5610;52.154;9.198;2024-03-08T03:34:40;34.00;;;28.73;;
11113;SDS011;5610;52.154;9.198;2024-03-08T03:37:27;37.35;;;27.52;;
11113;SDS011;5610;52.154;9.198;2024-03-08T03:40:13;30.02;;;24.25;;
11113;SDS011;5610;52.154;9.198;2024-03-08T03:42:58;27.20;;;23.42;;
11113;SDS011;5610;52.154;9.198;2024-03-08T03:45:45;30.17;;;24.20;;
11113;SDS011;5610;52.154;9.198;2024-03-08T03:48:30;28.08;;;25.08;;
11113;SDS011;5610;52.154;9.198;2024-03-08T03:51:16;28.00;;;24.88;;
11113;SDS011;5610;52.154;9.198;2024-03-08T03:54:01;30.83;;;25.33;;
11113;SDS011;5610;52.154;9.198;2024-03-08T03:56:47;31.80;;;25.60;;
11113;SDS011;5610;52.154;9.198;2024-03-08T03:59:36;31.75;;;26.30;;
11113;SDS011;5610;52.154;9.198;2024-03-08T04:02:22;32.97;;;26.35;;
11113;SDS011;5610;52.154;9.198;2024-03-08T04:05:08;32.72;;;26.08;;
11113;SDS011;5610;52.154;9.198;2024-03-08T04:07:54;33.80;;;26.80;;
11113;SDS011;5610;52.154;9.198;2024-03-08T04:10:40;30.42;;;25.88;;
11113;SDS011;5610;52.154;9.198;2024-03-08T04:13:26;29.45;;;26.30;;
11113;SDS011;5610;52.154;9.198;2024-03-08T04:16:11;33.70;;;28.08;;
11113;SDS011;5610;52.154;9.198;2024-03-08T04:18:58;38.85;;;29.40;;
11113;SDS011;5610;52.154;9.198;2024-03-08T04:21:47;33.83;;;28.52;;
11113;SDS011;5610;52.154;9.198;2024-03-08T04:24:33;36.78;;;30.42;;
11113;SDS011;5610;52.154;9.198;2024-03-08T04:27:18;33.38;;;28.35;;
11113;SDS011;5610;52.154;9.198;2024-03-08T04:30:03;35.95;;;29.05;;
11113;SDS011;5610;52.154;9.198;2024-03-08T04:32:51;37.35;;;29.98;;
11113;SDS011;5610;52.154;9.198;2024-03-08T04:35:37;37.88;;;29.45;;
11113;SDS011;5610;52.154;9.198;2024-03-08T04:38:23;35.15;;;30.00;;
11113;SDS011;5610;52.154;9.198;2024-03-08T04:41:08;34.17;;;28.55;;
11113;SDS011;5610;52.154;9.198;2024-03-08T04:43:54;38.70;;;30.48;;
11113;SDS011;5610;52.154;9.198;2024-03-08T04:46:41;36.65;;;30.13;;
11113;SDS011;5610;52.154;9.198;2024-03-08T04:49:26;38.45;;;30.42;;
11113;SDS011;5610;52.154;9.198;2024-03-08T04:52:13;34.95;;;28.58;;
11113;SDS011;5610;52.154;9.198;2024-03-08T04:54:58;39.08;;;30.73;;
11113;SDS011;5610;52.154;9.198;2024-03-08T04:57:43;36.55;;;29.95;;
11113;SDS011;5610;52.154;9.198;2024-03-08T05:00:30;37.65;;;30.95;;
11113;SDS011;5610;52.154;9.198;2024-03-08T05:03:15;36.53;;;30.58;;
11113;SDS011;5610;52.154;9.198;2024-03-08T05:06:00;34.75;;;28.98;;
11113;SDS011;5610;52.154;9.198;2024-03-08T05:08:47;36.00;;;30.45;;
11113;SDS011;5610;52.154;9.198;2024-03-08T05:11:32;36.95;;;30.77;;
11113;SDS011;5610;52.154;9.198;2024-03-08T05:14:17;37.17;;;29.90;;
11113;SDS011;5610;52.154;9.198;2024-03-08T05:17:03;36.22;;;28.05;;
11113;SDS011;5610;52.154;9.198;2024-03-08T05:19:50;36.67;;;30.65;;
11113;SDS011;5610;52.154;9.198;2024-03-08T05:22:36;34.83;;;29.80;;
11113;SDS011;5610;52.154;9.198;2024-03-08T05:25:22;34.38;;;29.15;;
11113;SDS011;5610;52.154;9.198;2024-03-08T05:28:07;34.15;;;28.90;;
11113;SDS011;5610;52.154;9.198;2024-03-08T05:30:53;36.45;;;29.88;;
11113;SDS011;5610;52.154;9.198;2024-03-08T05:33:40;38.22;;;30.05;;
11113;SDS011;5610;52.154;9.198;2024-03-08T05:36:27;41.28;;;32.15;;
11113;SDS011;5610;52.154;9.198;2024-03-08T05:39:12;36.53;;;27.35;;
11113;SDS011;5610;52.154;9.198;2024-03-08T05:41:58;36.42;;;29.85;;
11113;SDS011;5610;52.154;9.198;2024-03-08T05:44:44;41.08;;;32.17;;
11113;SDS011;5610;52.154;9.198;2024-03-08T05:47:29;40.67;;;29.65;;
11113;SDS011;5610;52.154;9.198;2024-03-08T05:50:14;41.10;;;30.80;;
11113;SDS011;5610;52.154;9.198;2024-03-08T05:52:59;39.67;;;32.47;;
11113;SDS011;5610;52.154;9.198;2024-03-08T05:55:45;39.15;;;29.77;;
11113;SDS011;5610;52.154;9.198;2024-03-08T05:58:31;40.13;;;30.98;;
11113;SDS011;5610;52.154;9.198;2024-03-08T06:01:16;41.88;;;32.17;;
11113;SDS011;5610;52.154;9.198;2024-03-08T06:04:02;37.97;;;30.17;;
11113;SDS011;5610;52.154;9.198;2024-03-08T06:06:48;40.22;;;31.13;;
11113;SDS011;5610;52.154;9.198;2024-03-08T06:09:35;42.30;;;30.70;;
11113;SDS011;5610;52.154;9.198;2024-03-08T06:12:21;39.33;;;31.30;;
11113;SDS011;5610;52.154;9.198;2024-03-08T06:15:09;38.38;;;30.58;;
11113;SDS011;5610;52.154;9.198;2024-03-08T06:17:58;40.42;;;31.90;;
11113;SDS011;5610;52.154;9.198;2024-03-08T06:20:43;39.50;;;29.90;;
11113;SDS011;5610;52.154;9.198;2024-03-08T06:23:30;45.60;;;33.15;;
11113;SDS011;5610;52.154;9.198;2024-03-08T06:26:15;39.97;;;32.45;;
11113;SDS011;5610;52.154;9.198;2024-03-08T06:29:00;37.33;;;29.70;;
11113;SDS011;5610;52.154;9.198;2024-03-08T06:31:47;42.40;;;32.08;;
11113;SDS011;5610;52.154;9.198;2024-03-08T06:34:32;40.22;;;29.67;;
11113;SDS011;5610;52.154;9.198;2024-03-08T06:37:18;40.67;;;32.05;;
11113;SDS011;5610;52.154;9.198;2024-03-08T06:40:06;41.85;;;31.27;;
11113;SDS011;5610;52.154;9.198;2024-03-08T06:42:55;42.90;;;32.60;;
11113;SDS011;5610;52.154;9.198;2024-03-08T06:45:40;41.03;;;31.17;;
11113;SDS011;5610;52.154;9.198;2024-03-08T06:48:27;43.63;;;32.15;;
11113;SDS011;5610;52.154;9.198;2024-03-08T06:51:13;45.60;;;32.63;;
11113;SDS011;5610;52.154;9.198;2024-03-08T06:53:59;40.60;;;32.67;;
11113;SDS011;5610;52.154;9.198;2024-03-08T06:56:44;39.35;;;31.25;;
11113;SDS011;5610;52.154;9.198;2024-03-08T06:59:29;47.17;;;33.58;;
11113;SDS011;5610;52.154;9.198;2024-03-08T07:02:14;41.08;;;33.17;;
11113;SDS011;5610;52.154;9.198;2024-03-08T07:05:01;41.90;;;30.70;;
11113;SDS011;5610;52.154;9.198;2024-03-08T07:07:48;43.30;;;33.05;;
11113;SDS011;5610;52.154;9.198;2024-03-08T07:10:33;40.00;;;32.95;;
11113;SDS011;5610;52.154;9.198;2024-03-08T07:13:18;40.42;;;31.77;;
11113;SDS011;5610;52.154;9.198;2024-03-08T07:16:04;42.40;;;32.95;;
11113;SDS011;5610;52.154;9.198;2024-03-08T07:18:49;42.88;;;31.73;;
11113;SDS011;5610;52.154;9.198;2024-03-08T07:21:37;41.50;;;32.40;;
11113;SDS011;5610;52.154;9.198;2024-03-08T07:24:22;42.15;;;32.40;;
11113;SDS011;5610;52.154;9.198;2024-03-08T07:27:22;41.45;;;32.17;;
11113;SDS011;5610;52.154;9.198;2024-03-08T07:30:07;40.95;;;31.20;;
11113;SDS011;5610;52.154;9.198;2024-03-08T07:32:53;38.22;;;32.90;;
11113;SDS011;5610;52.154;9.198;2024-03-08T07:35:39;40.47;;;32.53;;
11113;SDS011;5610;52.154;9.198;2024-03-08T07:38:27;42.33;;;30.50;;
11113;SDS011;5610;52.154;9.198;2024-03-08T07:41:13;42.25;;;33.03;;
11113;SDS011;5610;52.154;9.198;2024-03-08T07:44:00;41.10;;;30.50;;
11113;SDS011;5610;52.154;9.198;2024-03-08T07:46:47;42.90;;;31.70;;
11113;SDS011;5610;52.154;9.198;2024-03-08T07:49:32;39.40;;;30.45;;
11113;SDS011;5610;52.154;9.198;2024-03-08T07:52:18;34.95;;;28.80;;
11113;SDS011;5610;52.154;9.198;2024-03-08T07:55:04;36.35;;;29.50;;
11113;SDS011;5610;52.154;9.198;2024-03-08T07:57:50;36.83;;;29.60;;
11113;SDS011;5610;52.154;9.198;2024-03-08T08:00:36;37.83;;;31.08;;
11113;SDS011;5610;52.154;9.198;2024-03-08T08:03:21;37.30;;;29.42;;
11113;SDS011;5610;52.154;9.198;2024-03-08T08:06:06;37.20;;;30.07;;
11113;SDS011;5610;52.154;9.198;2024-03-08T08:08:52;36.50;;;29.75;;
11113;SDS011;5610;52.154;9.198;2024-03-08T08:11:40;34.72;;;28.83;;
11113;SDS011;5610;52.154;9.198;2024-03-08T08:14:27;41.03;;;30.40;;
11113;SDS011;5610;52.154;9.198;2024-03-08T08:17:13;38.40;;;29.20;;
11113;SDS011;5610;52.154;9.198;2024-03-08T08:19:58;36.00;;;28.90;;
11113;SDS011;5610;52.154;9.198;2024-03-08T08:22:43;36.40;;;28.77;;
11113;SDS011;5610;52.154;9.198;2024-03-08T08:25:28;39.07;;;29.50;;
11113;SDS011;5610;52.154;9.198;2024-03-08T08:28:15;33.43;;;26.37;;
11113;SDS011;5610;52.154;9.198;2024-03-08T08:31:01;33.80;;;28.03;;
11113;SDS011;5610;52.154;9.198;2024-03-08T08:33:47;36.00;;;29.75;;
11113;SDS011;5610;52.154;9.198;2024-03-08T08:36:32;37.77;;;29.67;;
11113;SDS011;5610;52.154;9.198;2024-03-08T08:39:18;39.83;;;29.30;;
11113;SDS011;5610;52.154;9.198;2024-03-08T08:42:03;36.97;;;29.17;;
11113;SDS011;5610;52.154;9.198;2024-03-08T08:44:52;34.20;;;28.93;;
11113;SDS011;5610;52.154;9.198;2024-03-08T08:47:37;36.40;;;29.53;;
11113;SDS011;5610;52.154;9.198;2024-03-08T08:50:22;36.47;;;29.80;;
11113;SDS011;5610;52.154;9.198;2024-03-08T08:53:08;37.30;;;30.07;;
11113;SDS011;5610;52.154;9.198;2024-03-08T08:55:54;36.80;;;30.60;;
11113;SDS011;5610;52.154;9.198;2024-03-08T08:58:40;35.40;;;28.27;;
11113;SDS011;5610;52.154;9.198;2024-03-08T09:01:27;34.80;;;29.80;;
11113;SDS011;5610;52.154;9.198;2024-03-08T09:04:12;35.23;;;28.97;;
11113;SDS011;5610;52.154;9.198;2024-03-08T09:06:58;36.40;;;28.70;;
11113;SDS011;5610;52.154;9.198;2024-03-08T09:09:45;37.33;;;30.17;;
11113;SDS011;5610;52.154;9.198;2024-03-08T09:12:30;32.17;;;28.67;;
11113;SDS011;5610;52.154;9.198;2024-03-08T09:15:16;35.53;;;29.17;;
11113;SDS011;5610;52.154;9.198;2024-03-08T09:18:05;35.10;;;28.23;;
11113;SDS011;5610;52.154;9.198;2024-03-08T09:20:52;32.40;;;27.63;;
11113;SDS011;5610;52.154;9.198;2024-03-08T09:23:38;33.93;;;27.97;;
11113;SDS011;5610;52.154;9.198;2024-03-08T09:26:25;29.43;;;26.23;;
11113;SDS011;5610;52.154;9.198;2024-03-08T09:29:10;31.10;;;27.17;;
11113;SDS011;5610;52.154;9.198;2024-03-08T09:31:55;30.70;;;27.23;;
11113;SDS011;5610;52.154;9.198;2024-03-08T09:34:42;37.43;;;30.30;;
11113;SDS011;5610;52.154;9.198;2024-03-08T09:37:27;37.80;;;29.43;;
11113;SDS011;5610;52.154;9.198;2024-03-08T09:40:12;31.23;;;27.83;;
11113;SDS011;5610;52.154;9.198;2024-03-08T09:42:59;36.50;;;29.90;;
11113;SDS011;5610;52.154;9.198;2024-03-08T09:45:45;39.40;;;30.70;;
11113;SDS011;5610;52.154;9.198;2024-03-08T09:48:34;37.60;;;29.63;;
11113;SDS011;5610;52.154;9.198;2024-03-08T09:51:22;30.87;;;27.43;;
11113;SDS011;5610;52.154;9.198;2024-03-08T09:54:12;31.57;;;27.40;;
11113;SDS011;5610;52.154;9.198;2024-03-08T09:56:57;31.67;;;28.23;;
11113;SDS011;5610;52.154;9.198;2024-03-08T09:59:42;26.90;;;24.13;;
11113;SDS011;5610;52.154;9.198;2024-03-08T10:02:32;30.03;;;26.67;;
11113;SDS011;5610;52.154;9.198;2024-03-08T10:05:18;31.33;;;26.17;;
11113;SDS011;5610;52.154;9.198;2024-03-08T10:08:05;29.60;;;26.40;;
11113;SDS011;5610;52.154;9.198;2024-03-08T10:10:51;30.93;;;26.10;;
11113;SDS011;5610;52.154;9.198;2024-03-08T10:13:36;29.43;;;26.10;;
11113;SDS011;5610;52.154;9.198;2024-03-08T10:16:21;28.50;;;25.60;;
11113;SDS011;5610;52.154;9.198;2024-03-08T10:19:08;28.87;;;25.83;;
11113;SDS011;5610;52.154;9.198;2024-03-08T10:21:55;29.00;;;26.00;;
11113;SDS011;5610;52.154;9.198;2024-03-08T10:24:43;31.27;;;27.00;;
11113;SDS011;5610;52.154;9.198;2024-03-08T10:27:29;30.03;;;26.80;;
11113;SDS011;5610;52.154;9.198;2024-03-08T10:30:15;31.43;;;26.37;;
11113;SDS011;5610;52.154;9.198;2024-03-08T10:33:04;27.50;;;24.63;;
11113;SDS011;5610;52.154;9.198;2024-03-08T10:35:50;28.00;;;25.20;;
11113;SDS011;5610;52.154;9.198;2024-03-08T10:38:36;27.07;;;24.47;;
11113;SDS011;5610;52.154;9.198;2024-03-08T10:41:24;27.13;;;24.53;;
11113;SDS011;5610;52.154;9.198;2024-03-08T10:44:16;31.30;;;25.30;;
11113;SDS011;5610;52.154;9.198;2024-03-08T10:47:13;27.97;;;25.30;;
11113;SDS011;5610;52.154;9.198;2024-03-08T10:50:05;28.37;;;25.60;;
11113;SDS011;5610;52.154;9.198;2024-03-08T10:52:56;26.20;;;23.90;;
11113;SDS011;5610;52.154;9.198;2024-03-08T10:55:44;26.47;;;24.07;;
11113;SDS011;5610;52.154;9.198;2024-03-08T10:58:33;26.30;;;23.70;;
11113;SDS011;5610;52.154;9.198;2024-03-08T11:01:20;25.80;;;23.57;;
11113;SDS011;5610;52.154;9.198;2024-03-08T11:04:05;27.50;;;25.10;;
11113;SDS011;5610;52.154;9.198;2024-03-08T11:06:51;24.57;;;22.47;;
11113;SDS011;5610;52.154;9.198;2024-03-08T11:09:37;26.17;;;23.97;;
11113;SDS011;5610;52.154;9.198;2024-03-08T11:12:23;28.23;;;25.67;;
11113;SDS011;5610;52.154;9.198;2024-03-08T11:15:14;25.97;;;23.80;;
11113;SDS011;5610;52.154;9.198;2024-03-08T11:18:02;25.40;;;23.20;;
11113;SDS011;5610;52.154;9.198;2024-03-08T11:20:54;26.83;;;24.63;;
11113;SDS011;5610;52.154;9.198;2024-03-08T11:23:41;27.10;;;24.70;;
11113;SDS011;5610;52.154;9.198;2024-03-08T11:26:27;27.00;;;24.70;;
11113;SDS011;5610;52.154;9.198;2024-03-08T11:29:33;25.30;;;23.30;;
11113;SDS011;5610;52.154;9.198;2024-03-08T11:32:23;26.70;;;24.40;;
11113;SDS011;5610;52.154;9.198;2024-03-08T11:35:17;24.70;;;22.60;;
11113;SDS011;5610;52.154;9.198;2024-03-08T11:38:04;24.50;;;22.30;;
11113;SDS011;5610;52.154;9.198;2024-03-08T11:40:50;24.63;;;22.37;;
11113;SDS011;5610;52.154;9.198;2024-03-08T11:43:35;24.33;;;22.17;;
11113;SDS011;5610;52.154;9.198;2024-03-08T11:46:24;24.87;;;22.63;;
11113;SDS011;5610;52.154;9.198;2024-03-08T11:49:13;24.37;;;22.33;;
11113;SDS011;5610;52.154;9.198;2024-03-08T11:51:58;24.37;;;22.27;;
11113;SDS011;5610;52.154;9.198;2024-03-08T11:54:47;24.37;;;22.33;;
11113;SDS011;5610;52.154;9.198;2024-03-08T11:57:35;24.00;;;22.10;;
11113;SDS011;5610;52.154;9.198;2024-03-08T12:00:21;23.93;;;21.90;;
11113;SDS011;5610;52.154;9.198;2024-03-08T12:03:09;23.83;;;21.83;;
11113;SDS011;5610;52.154;9.198;2024-03-08T12:05:58;23.27;;;21.27;;
11113;SDS011;5610;52.154;9.198;2024-03-08T12:08:43;23.80;;;21.80;;
11113;SDS011;5610;52.154;9.198;2024-03-08T12:11:33;22.90;;;21.00;;
11113;SDS011;5610;52.154;9.198;2024-03-08T12:14:20;23.60;;;21.50;;
11113;SDS011;5610;52.154;9.198;2024-03-08T12:17:06;22.50;;;20.63;;
11113;SDS011;5610;52.154;9.198;2024-03-08T12:19:53;24.03;;;21.90;;
11113;SDS011;5610;52.154;9.198;2024-03-08T12:22:42;23.33;;;21.43;;
11113;SDS011;5610;52.154;9.198;2024-03-08T12:25:27;21.70;;;19.90;;
11113;SDS011;5610;52.154;9.198;2024-03-08T12:28:14;24.10;;;22.20;;
11113;SDS011;5610;52.154;9.198;2024-03-08T12:31:01;22.77;;;20.87;;
11113;SDS011;5610;52.154;9.198;2024-03-08T12:33:49;23.53;;;21.63;;
11113;SDS011;5610;52.154;9.198;2024-03-08T12:36:34;23.17;;;21.30;;
11113;SDS011;5610;52.154;9.198;2024-03-08T12:39:21;23.17;;;21.20;;
11113;SDS011;5610;52.154;9.198;2024-03-08T12:42:10;22.63;;;20.93;;
11113;SDS011;5610;52.154;9.198;2024-03-08T12:44:55;23.07;;;20.97;;
11113;SDS011;5610;52.154;9.198;2024-03-08T12:47:40;24.80;;;22.40;;
11113;SDS011;5610;52.154;9.198;2024-03-08T12:50:26;21.83;;;20.00;;
11113;SDS011;5610;52.154;9.198;2024-03-08T12:53:13;21.97;;;20.20;;
11113;SDS011;5610;52.154;9.198;2024-03-08T12:56:00;22.97;;;21.07;;
11113;SDS011;5610;52.154;9.198;2024-03-08T12:58:45;23.50;;;21.60;;
11113;SDS011;5610;52.154;9.198;2024-03-08T13:01:30;23.90;;;21.90;;
11113;SDS011;5610;52.154;9.198;2024-03-08T13:04:16;24.20;;;22.00;;
11113;SDS011;5610;52.154;9.198;2024-03-08T13:07:02;23.60;;;21.47;;
11113;SDS011;5610;52.154;9.198;2024-03-08T13:09:48;25.13;;;23.03;;
11113;SDS011;5610;52.154;9.198;2024-03-08T13:12:34;24.30;;;22.40;;
11113;SDS011;5610;52.154;9.198;2024-03-08T13:15:22;24.10;;;21.97;;
11113;SDS011;5610;52.154;9.198;2024-03-08T13:18:07;23.97;;;22.10;;
11113;SDS011;5610;52.154;9.198;2024-03-08T13:20:53;24.43;;;22.30;;
11113;SDS011;5610;52.154;9.198;2024-03-08T13:23:39;26.63;;;24.20;;
11113;SDS011;5610;52.154;9.198;2024-03-08T13:26:29;25.60;;;23.50;;
11113;SDS011;5610;52.154;9.198;2024-03-08T13:29:17;25.57;;;23.30;;
11113;SDS011;5610;52.154;9.198;2024-03-08T13:32:03;26.33;;;24.03;;
11113;SDS011;5610;52.154;9.198;2024-03-08T13:34:50;26.70;;;24.20;;
11113;SDS011;5610;52.154;9.198;2024-03-08T13:37:36;26.30;;;24.00;;
11113;SDS011;5610;52.154;9.198;2024-03-08T13:40:21;25.00;;;22.90;;
11113;SDS011;5610;52.154;9.198;2024-03-08T13:43:07;25.17;;;23.07;;
11113;SDS011;5610;52.154;9.198;2024-03-08T13:45:53;26.47;;;24.17;;
11113;SDS011;5610;52.154;9.198;2024-03-08T13:48:39;26.27;;;23.77;;
11113;SDS011;5610;52.154;9.198;2024-03-08T13:51:25;25.07;;;22.93;;
11113;SDS011;5610;52.154;9.198;2024-03-08T13:54:10;24.10;;;22.10;;
11113;SDS011;5610;52.154;9.198;2024-03-08T13:56:55;24.70;;;22.70;;
11113;SDS011;5610;52.154;9.198;2024-03-08T13:59:41;23.37;;;21.43;;
11113;SDS011;5610;52.154;9.198;2024-03-08T14:02:27;25.73;;;23.40;;
11113;SDS011;5610;52.154;9.198;2024-03-08T14:05:14;26.10;;;23.80;;
11113;SDS011;5610;52.154;9.198;2024-03-08T14:08:01;24.50;;;22.37;;
11113;SDS011;5610;52.154;9.198;2024-03-08T14:10:47;26.60;;;24.30;;
11113;SDS011;5610;52.154;9.198;2024-03-08T14:13:34;24.67;;;22.43;;
11113;SDS011;5610;52.154;9.198;2024-03-08T14:16:20;25.50;;;23.40;;
11113;SDS011;5610;52.154;9.198;2024-03-08T14:19:06;24.07;;;22.17;;
11113;SDS011;5610;52.154;9.198;2024-03-08T14:21:53;22.70;;;20.70;;
11113;SDS011;5610;52.154;9.198;2024-03-08T14:24:38;23.77;;;21.77;;
11113;SDS011;5610;52.154;9.198;2024-03-08T14:27:24;25.80;;;23.50;;
11113;SDS011;5610;52.154;9.198;2024-03-08T14:30:11;25.77;;;23.57;;
11113;SDS011;5610;52.154;9.198;2024-03-08T14:32:56;25.90;;;23.60;;
11113;SDS011;5610;52.154;9.198;2024-03-08T14:35:42;24.73;;;22.73;;
11113;SDS011;5610;52.154;9.198;2024-03-08T14:38:28;25.30;;;23.20;;
11113;SDS011;5610;52.154;9.198;2024-03-08T14:41:13;25.80;;;23.60;;
11113;SDS011;5610;52.154;9.198;2024-03-08T14:43:58;26.37;;;24.20;;
11113;SDS011;5610;52.154;9.198;2024-03-08T14:46:44;27.07;;;24.77;;
11113;SDS011;5610;52.154;9.198;2024-03-08T14:49:29;25.83;;;23.43;;
11113;SDS011;5610;52.154;9.198;2024-03-08T14:52:16;27.37;;;25.07;;
11113;SDS011;5610;52.154;9.198;2024-03-08T14:55:11;24.63;;;22.53;;
11113;SDS011;5610;52.154;9.198;2024-03-08T14:57:58;27.20;;;24.90;;
11113;SDS011;5610;52.154;9.198;2024-03-08T15:00:43;27.30;;;24.70;;
11113;SDS011;5610;52.154;9.198;2024-03-08T15:03:29;27.47;;;24.87;;
11113;SDS011;5610;52.154;9.198;2024-03-08T15:06:14;27.00;;;24.77;;
11113;SDS011;5610;52.154;9.198;2024-03-08T15:09:05;26.60;;;24.20;;
11113;SDS011;5610;52.154;9.198;2024-03-08T15:11:54;27.53;;;25.03;;
11113;SDS011;5610;52.154;9.198;2024-03-08T15:14:41;27.30;;;25.00;;
11113;SDS011;5610;52.154;9.198;2024-03-08T15:17:28;29.60;;;27.00;;
11113;SDS011;5610;52.154;9.198;2024-03-08T15:20:13;29.10;;;26.00;;
11113;SDS011;5610;52.154;9.198;2024-03-08T15:22:59;29.23;;;26.57;;
11113;SDS011;5610;52.154;9.198;2024-03-08T15:25:46;28.67;;;26.07;;
11113;SDS011;5610;52.154;9.198;2024-03-08T15:28:32;28.40;;;25.70;;
11113;SDS011;5610;52.154;9.198;2024-03-08T15:31:20;28.07;;;25.37;;
11113;SDS011;5610;52.154;9.198;2024-03-08T15:34:09;31.00;;;26.93;;
11113;SDS011;5610;52.154;9.198;2024-03-08T15:36:55;29.07;;;26.07;;
11113;SDS011;5610;52.154;9.198;2024-03-08T15:39:45;29.77;;;26.83;;
11113;SDS011;5610;52.154;9.198;2024-03-08T15:42:32;32.53;;;27.93;;
11113;SDS011;5610;52.154;9.198;2024-03-08T15:45:17;31.67;;;28.00;;
11113;SDS011;5610;52.154;9.198;2024-03-08T15:48:03;29.73;;;26.40;;
11113;SDS011;5610;52.154;9.198;2024-03-08T15:50:48;29.40;;;26.20;;
11113;SDS011;5610;52.154;9.198;2024-03-08T15:53:34;30.50;;;27.37;;
11113;SDS011;5610;52.154;9.198;2024-03-08T15:56:20;29.77;;;26.67;;
11113;SDS011;5610;52.154;9.198;2024-03-08T15:59:07;32.83;;;27.03;;
11113;SDS011;5610;52.154;9.198;2024-03-08T16:01:52;34.47;;;26.70;;
11113;SDS011;5610;52.154;9.198;2024-03-08T16:04:37;32.30;;;26.43;;
11113;SDS011;5610;52.154;9.198;2024-03-08T16:07:23;29.67;;;26.47;;
11113;SDS011;5610;52.154;9.198;2024-03-08T16:10:10;36.43;;;28.30;;
11113;SDS011;5610;52.154;9.198;2024-03-08T16:12:55;30.40;;;27.10;;
11113;SDS011;5610;52.154;9.198;2024-03-08T16:15:43;30.47;;;27.07;;
11113;SDS011;5610;52.154;9.198;2024-03-08T16:18:29;29.73;;;25.90;;
11113;SDS011;5610;52.154;9.198;2024-03-08T16:21:14;32.23;;;27.70;;
11113;SDS011;5610;52.154;9.198;2024-03-08T16:24:00;34.40;;;28.03;;
11113;SDS011;5610;52.154;9.198;2024-03-08T16:26:45;33.03;;;27.10;;